Time;durP1;ratioP1;P1;durP2;ratioP2;P2;SDS_P1;SDS_P2;PMS_P1;PMS_P2;Temp;Humidity;BMP_temperature;BMP_pressure;BME280_temperature;BME280_humidity;BME280_pressure;Samples;Min_cycle;Max_cycle;Signal;HPM_P1;HPM_P2
2022/04/18 00:02:42;;;;;;;3.25;2.22;;;;;;;9.69;30.12;100180.03;7682434;32;39978;-76
2022/04/18 00:07:02;;;;;;;4.53;2.58;;;;;;;9.49;31.75;100177.94;7679296;32;149474;-76
2022/04/18 00:11:18;;;;;;;2.92;2.50;;;;;;;9.92;30.57;100168.03;7683948;32;37858;-76
2022/04/18 00:15:34;;;;;;;3.10;2.17;;;;;;;9.88;30.51;100170.47;7684221;32;40045;-75
2022/04/18 00:19:50;;;;;;;4.30;2.37;;;;;;;9.89;31.27;100157.66;7684132;32;39942;-75
2022/04/18 00:24:08;;;;;;;3.03;2.30;;;;;;;9.70;32.40;100160.75;7683920;32;37905;-76
2022/04/18 00:28:30;;;;;;;3.45;2.45;;;;;;;9.55;33.20;100160.56;7683972;32;38167;-75
2022/04/18 00:32:46;;;;;;;4.00;2.33;;;;;;;9.71;33.01;100150.66;7683772;32;39295;-76
2022/04/18 00:37:02;;;;;;;5.10;2.83;;;;;;;9.55;33.55;100142.37;7683159;32;40793;-75
2022/04/18 00:41:18;;;;;;;3.30;2.22;;;;;;;9.51;33.66;100140.41;7682652;32;37941;-75
2022/04/18 00:45:35;;;;;;;3.87;2.70;;;;;;;9.62;33.25;100136.69;7683599;32;37170;-76
2022/04/18 00:49:51;;;;;;;5.43;2.67;;;;;;;9.44;31.67;100135.16;7683361;32;38989;-75
2022/04/18 00:54:08;;;;;;;5.30;2.65;;;;;;;9.57;31.69;100128.47;7683336;32;39900;-76
2022/04/18 00:58:24;;;;;;;3.85;2.70;;;;;;;9.76;31.78;100121.59;7683112;32;37745;-76
2022/04/18 01:02:40;;;;;;;3.15;2.50;;;;;;;9.59;32.29;100118.19;7682110;32;37049;-76
2022/04/18 01:06:57;;;;;;;6.28;2.75;;;;;;;9.64;32.66;100118.22;7682514;32;39383;-77
2022/04/18 01:11:13;;;;;;;3.25;2.37;;;;;;;9.27;33.32;100110.75;7682490;32;39971;-75
2022/04/18 01:15:30;;;;;;;3.75;2.50;;;;;;;9.55;32.81;100111.59;7681651;32;38122;-75
2022/04/18 01:19:46;;;;;;;3.90;2.50;;;;;;;9.64;31.99;100109.22;7682748;32;37097;-75
2022/04/18 01:28:58;;;;;;;7.37;2.97;;;;;;;9.60;32.85;100100.75;7681839;32;37927;-76
2022/04/18 01:33:13;;;;;;;4.20;2.65;;;;;;;9.26;32.58;100090.09;7682334;32;37535;-76
2022/04/18 01:37:29;;;;;;;3.75;2.40;;;;;;;9.22;33.94;100088.94;7681150;32;36599;-76
2022/04/18 01:41:46;;;;;;;4.37;2.72;;;;;;;9.36;33.05;100078.47;7681896;32;40110;-75
2022/04/18 01:46:02;;;;;;;3.80;2.42;;;;;;;9.20;35.75;100080.22;7681038;32;40004;-75
2022/04/18 01:50:18;;;;;;;4.53;2.65;;;;;;;9.33;34.73;100071.66;7683080;32;37971;-76
2022/04/18 01:54:35;;;;;;;4.35;2.75;;;;;;;9.25;34.70;100077.53;7685959;32;37361;-76
2022/04/18 01:58:52;;;;;;;5.20;2.80;;;;;;;9.32;34.54;100066.47;7685834;32;39369;-75
2022/04/18 02:03:08;;;;;;;6.15;3.22;;;;;;;9.30;34.82;100069.44;7685774;32;40829;-76
2022/04/18 02:07:24;;;;;;;4.90;2.90;;;;;;;9.14;35.10;100067.63;7685608;32;37954;-76
2022/04/18 02:11:40;;;;;;;4.18;2.60;;;;;;;9.01;36.19;100066.94;7685268;32;37105;-76
2022/04/18 02:15:57;;;;;;;3.83;2.80;;;;;;;9.05;36.24;100064.53;7685709;32;39421;-75
2022/04/18 02:20:14;;;;;;;7.93;2.97;;;;;;;9.15;36.46;100058.41;7685660;32;39948;-75
2022/04/18 02:24:30;;;;;;;7.00;3.05;;;;;;;9.23;36.31;100051.66;7685594;32;38623;-75
2022/04/18 02:28:46;;;;;;;6.10;3.45;;;;;;;9.13;37.95;100046.94;7685531;32;37868;-76
2022/04/18 02:33:02;;;;;;;5.72;2.83;;;;;;;9.01;38.54;100047.09;7685390;32;39349;-76
2022/04/18 02:37:18;;;;;;;5.37;2.92;;;;;;;8.83;39.64;100031.94;7685591;32;40145;-75
2022/04/18 02:41:34;;;;;;;5.60;3.15;;;;;;;8.76;39.02;100036.72;7685044;32;38065;-75
2022/04/18 02:45:51;;;;;;;3.55;2.70;;;;;;;8.82;38.55;100031.09;7685332;32;37128;-76
2022/04/18 02:50:08;;;;;;;4.50;2.90;;;;;;;8.63;38.80;100018.94;7685257;32;39024;-76
2022/04/18 02:54:24;;;;;;;6.07;3.00;;;;;;;8.76;38.36;100026.69;7685277;32;39877;-75
2022/04/18 02:58:40;;;;;;;4.78;2.67;;;;;;;8.96;37.77;100020.66;7685260;32;37939;-76
2022/04/18 03:02:56;;;;;;;4.70;2.55;;;;;;;8.62;38.92;100009.13;7684255;32;37060;-75
2022/04/18 03:07:12;;;;;;;2.70;2.40;;;;;;;8.53;39.16;100011.47;7685042;32;39375;-75
2022/04/18 03:11:28;;;;;;;4.53;2.60;;;;;;;8.64;38.20;100005.09;7684711;32;40821;-76
2022/04/18 03:15:44;;;;;;;4.75;2.65;;;;;;;8.49;38.81;99999.47;7683664;32;37935;-75
2022/04/18 03:20:00;;;;;;;4.62;2.53;;;;;;;8.69;38.24;100003.50;7684951;32;38049;-75
2022/04/18 03:24:16;;;;;;;5.28;2.62;;;;;;;8.86;38.17;99993.34;7684936;32;39395;-75
2022/04/18 03:28:34;;;;;;;4.47;2.83;;;;;;;8.67;39.43;99989.34;7684808;32;40814;-75
2022/04/18 03:32:50;;;;;;;4.53;2.80;;;;;;;8.80;39.58;99992.50;7684887;32;38667;-76
2022/04/18 03:41:41;;;;;;;5.82;3.17;;;;;;;8.16;42.33;99984.88;7684468;32;38964;-75
2022/04/18 03:45:57;;;;;;;4.00;2.70;;;;;;;8.25;41.95;99991.53;7684618;32;40783;-76
2022/04/18 03:50:14;;;;;;;4.90;2.90;;;;;;;8.38;42.14;99978.63;7684604;32;38758;-76
2022/04/18 03:54:30;;;;;;;5.20;3.20;;;;;;;8.35;42.48;99979.16;7684477;32;37782;-75
2022/04/18 03:58:46;;;;;;;5.15;3.33;;;;;;;8.28;42.64;99979.34;7684368;32;39418;-75
2022/04/18 04:03:02;;;;;;;7.32;3.10;;;;;;;8.31;42.68;99976.09;7684346;32;39975;-75
2022/04/18 04:07:18;;;;;;;7.28;3.47;;;;;;;8.35;42.62;99976.44;7684166;32;37848;-76
2022/04/18 04:11:34;;;;;;;6.80;3.62;;;;;;;8.48;42.08;99977.97;7683517;32;37158;-76
2022/04/18 04:15:51;;;;;;;6.28;3.60;;;;;;;8.39;41.68;99972.13;7684284;32;38962;-75
2022/04/18 04:20:08;;;;;;;7.65;3.55;;;;;;;8.13;41.81;99971.81;7684042;32;39909;-76
2022/04/18 04:24:24;;;;;;;5.55;3.60;;;;;;;8.21;40.76;99976.81;7683895;32;37798;-76
2022/04/18 04:28:40;;;;;;;6.57;3.72;;;;;;;7.98;40.75;99972.41;7683897;32;37015;-76
2022/04/18 04:32:58;;;;;;;6.15;3.75;;;;;;;7.93;40.22;99968.81;7683887;32;38385;-76
2022/04/18 04:37:14;;;;;;;7.70;3.80;;;;;;;7.90;40.41;99965.53;7683732;32;41241;-75
2022/04/18 04:41:30;;;;;;;6.25;4.12;;;;;;;8.01;40.40;99971.91;7683277;32;39095;-75
2022/04/18 04:45:47;;;;;;;5.68;3.42;;;;;;;7.95;40.83;99970.22;7683579;32;38520;-76
2022/04/18 04:50:03;;;;;;;6.10;3.83;;;;;;;8.02;40.71;99968.13;7683524;32;39078;-76
2022/04/18 04:54:19;;;;;;;7.70;4.05;;;;;;;7.63;41.09;99967.28;7683481;32;40561;-77
2022/04/18 04:58:35;;;;;;;8.68;4.70;;;;;;;7.81;40.68;99961.59;7683246;32;37733;-76
2022/04/18 05:02:54;;;;;;;6.25;4.20;;;;;;;7.98;40.38;99960.72;7683202;32;37848;-76
2022/04/18 05:07:11;;;;;;;5.70;3.90;;;;;;;7.84;40.26;99961.09;7682990;32;39836;-76
2022/04/18 05:11:27;;;;;;;5.50;3.35;;;;;;;7.66;40.74;99959.47;7682586;32;39772;-77
2022/04/18 05:15:43;;;;;;;6.15;3.72;;;;;;;7.72;40.60;99965.78;7682784;32;37430;-77
2022/04/18 05:19:59;;;;;;;5.87;3.67;;;;;;;7.62;40.68;99957.50;7682841;32;37559;-76
2022/04/18 05:24:15;;;;;;;6.43;3.85;;;;;;;7.73;40.35;99959.31;7683255;32;39098;-76
2022/04/18 05:28:31;;;;;;;7.32;4.03;;;;;;;7.65;39.96;99967.84;7686265;32;40589;-77
2022/04/18 05:32:49;;;;;;;5.28;3.65;;;;;;;7.81;39.85;99961.59;7686080;32;38862;-75
2022/04/18 05:37:05;;;;;;;6.97;4.12;;;;;;;7.74;40.47;99960.12;7686199;32;36838;-75
2022/04/18 05:41:21;;;;;;;7.62;4.35;;;;;;;7.68;40.51;99956.50;7685950;32;40104;-75
2022/04/18 05:45:38;;;;;;;10.82;4.03;;;;;;;7.97;39.57;99953.66;7686105;32;40092;-75
2022/04/18 05:49:54;;;;;;;5.85;4.10;;;;;;;7.99;38.41;99946.09;7685825;32;38551;-75
2022/04/18 05:54:10;;;;;;;9.73;4.55;;;;;;;7.85;40.39;99951.06;7686042;32;36995;-72
2022/04/18 05:58:26;;;;;;;9.02;4.60;;;;;;;8.36;39.29;99945.47;7686036;32;39237;-71
2022/04/18 06:02:43;;;;;;;7.03;4.32;;;;;;;8.48;38.02;99948.91;7685911;32;39849;-71
2022/04/18 06:07:01;;;;;;;6.72;4.22;;;;;;;8.92;37.22;99937.97;7685721;32;36984;-72
2022/04/18 06:11:17;;;;;;;7.20;4.03;;;;;;;9.06;37.80;99938.38;7684009;32;37880;-72
2022/04/18 06:15:33;;;;;;;7.03;4.28;;;;;;;9.19;38.13;99932.50;7685731;32;39095;-73
2022/04/18 06:19:49;;;;;;;9.25;4.10;;;;;;;9.38;38.42;99930.22;7685605;32;39723;-73
2022/04/18 06:24:05;;;;;;;9.23;4.10;;;;;;;9.71;35.91;99922.81;7685467;32;38641;-73
2022/04/18 06:28:21;;;;;;;5.25;3.33;;;;;;;10.03;35.72;99918.34;7684636;32;37008;-73
2022/04/18 06:32:37;;;;;;;7.78;3.05;;;;;;;10.36;31.27;99906.25;7682961;32;39761;-73
2022/04/18 06:36:53;;;;;;;5.00;2.95;;;;;;;9.65;31.00;99906.72;7683378;32;39906;-73
2022/04/18 06:41:09;;;;;;;5.28;3.12;;;;;;;9.94;30.52;99910.69;7683028;32;37738;-73
2022/04/18 06:45:28;;;;;;;4.53;3.17;;;;;;;10.42;29.98;99910.66;7683436;32;37934;-74
2022/04/18 06:49:45;;;;;;;5.53;3.20;;;;;;;10.22;31.24;99911.34;7684656;32;39303;-74
2022/04/18 06:54:02;;;;;;;5.87;2.90;;;;;;;9.99;30.97;99912.63;7685049;32;40022;-75
2022/04/18 06:58:19;;;;;;;3.58;2.80;;;;;;;10.59;31.11;99906.84;7683880;32;37888;-74
2022/04/18 07:02:35;;;;;;;4.05;2.87;;;;;;;10.83;29.88;99897.09;7684975;32;38596;-73
2022/04/18 07:06:51;;;;;;;5.95;3.10;;;;;;;10.45;30.45;99891.03;7684231;32;39370;-72
2022/04/18 07:11:07;;;;;;;4.43;3.20;;;;;;;10.74;29.36;99895.19;7673871;32;40023;-73
2022/04/18 07:15:23;;;;;;;5.00;2.80;;;;;;;10.43;30.51;99898.62;7683893;32;37922;-73
2022/04/18 07:19:39;;;;;;;5.00;2.72;;;;;;;10.67;30.89;99890.78;7683072;32;37916;-74
2022/04/18 07:23:55;;;;;;;4.37;2.80;;;;;;;10.65;29.19;99894.87;7684133;32;39360;-72
2022/04/18 07:28:11;;;;;;;3.25;2.55;;;;;;;10.67;31.34;99901.69;7684085;32;40790;-74
2022/04/18 07:32:27;;;;;;;3.67;2.55;;;;;;;10.77;26.35;99892.72;7681639;32;37895;-73
2022/04/18 07:36:43;;;;;;;4.00;2.55;;;;;;;10.77;26.62;99884.53;7683246;32;37352;-73
2022/04/18 07:41:04;;;;;;;5.87;2.80;;;;;;;10.83;26.42;99888.09;7684193;32;39462;-74
2022/04/18 07:45:20;;;;;;;5.43;2.50;;;;;;;10.83;27.62;99888.09;7673331;32;39646;-73
2022/04/18 07:49:36;;;;;;;5.43;2.55;;;;;;;11.21;26.81;99880.47;7662197;32;37627;-74
2022/04/18 07:53:53;;;;;;;5.55;2.80;;;;;;;10.62;26.27;99873.59;7684436;32;36790;-75
2022/04/18 07:58:09;;;;;;;13.13;3.55;;;;;;;10.87;26.29;99867.38;7684367;32;39104;-75
2022/04/18 08:02:25;;;;;;;3.53;2.45;;;;;;;11.06;27.22;99865.75;7682987;32;40919;-74
2022/04/18 08:06:42;;;;;;;2.62;2.20;;;;;;;11.34;26.47;99865.44;7684026;32;37959;-74
2022/04/18 08:10:58;;;;;;;6.35;2.70;;;;;;;11.93;24.67;99853.03;7684284;32;36949;-74
2022/04/18 08:15:14;;;;;;;4.03;2.42;;;;;;;11.26;25.65;99854.00;7683304;32;39417;-74
2022/04/18 08:19:30;;;;;;;6.62;3.08;;;;;;;11.45;24.96;99850.69;7683953;32;40066;-74
2022/04/18 08:23:48;;;;;;;5.75;2.90;;;;;;;11.84;25.25;99848.13;7683769;32;37559;-73
2022/04/18 08:28:05;;;;;;;5.43;2.70;;;;;;;11.69;24.77;99853.63;7682688;32;37162;-74
2022/04/18 08:32:21;;;;;;;4.82;2.62;;;;;;;11.86;25.48;99839.66;7683350;32;39097;-75
2022/04/18 08:36:37;;;;;;;4.80;2.78;;;;;;;11.80;24.74;99851.69;7682853;32;40495;-74
2022/04/18 08:40:57;;;;;;;3.17;2.70;;;;;;;11.69;25.19;99839.16;7683235;32;37796;-74
2022/04/18 08:45:15;;;;;;;4.82;2.80;;;;;;;11.56;26.34;99844.12;7682458;32;37109;-75
2022/04/18 08:54:08;;;;;;;5.05;2.83;;;;;;;11.04;26.61;99827.00;7682014;32;41126;-72
2022/04/18 08:58:26;;;;;;;3.55;2.40;;;;;;;11.46;25.51;99822.31;7683081;32;37819;-73
2022/04/18 09:02:42;;;;;;;3.85;2.28;;;;;;;11.76;25.13;99823.28;7686405;32;37501;-72
2022/04/18 09:07:10;;;;;;;9.95;2.80;;;;;;;11.99;25.60;99816.41;7685914;32;40163;-72
2022/04/18 09:11:33;;;;;;;5.95;2.87;;;;;;;11.67;24.90;99824.97;7677903;32;40874;-72
2022/04/18 09:15:49;;;;;;;4.43;2.37;;;;;;;12.09;24.91;99815.53;7675168;32;38000;-72
2022/04/18 09:20:11;;;;;;;6.70;3.47;;;;;;;12.39;25.51;99793.50;7659707;32;37891;-74
2022/04/18 09:24:36;;;;;;;3.97;2.22;;;;;;;12.34;26.08;99796.25;7681515;32;38400;-72
2022/04/18 09:29:01;;;;;;;3.60;2.58;;;;;;;12.44;26.70;99789.91;7685856;32;40542;-71
2022/04/18 09:33:18;;;;;;;4.12;2.50;;;;;;;12.74;23.37;99782.56;7678660;32;37882;-72
2022/04/18 09:37:34;;;;;;;3.75;2.05;;;;;;;13.04;22.10;99777.91;7670447;32;37817;-72
2022/04/18 09:42:06;;;;;;;4.93;2.10;;;;;;;13.39;22.09;99776.78;7674062;32;39481;-72
2022/04/18 09:46:23;;;;;;;3.65;2.25;;;;;;;13.89;21.41;99769.03;7674738;32;39387;-72
2022/04/18 09:55:14;;;;;;;3.90;2.20;;;;;;;13.53;20.18;99761.25;7685640;32;37138;-72
2022/04/18 09:59:30;;;;;;;4.37;1.92;;;;;;;13.16;21.62;99761.94;7684569;32;39333;-73
2022/04/18 10:03:50;;;;;;;4.22;2.30;;;;;;;12.94;22.13;99759.69;7685520;32;39813;-73
2022/04/18 10:08:06;;;;;;;5.15;2.45;;;;;;;12.68;21.82;99761.84;7684569;32;37840;-72
2022/04/18 10:12:22;;;;;;;2.90;2.17;;;;;;;12.91;22.58;99760.25;7685114;32;37227;-73
2022/04/18 10:16:39;;;;;;;7.07;3.37;;;;;;;12.89;22.12;99762.47;7684490;32;39282;-74
2022/04/18 10:21:08;;;;;;;4.40;2.20;;;;;;;12.71;23.59;99767.56;7685418;32;39953;-73
2022/04/18 10:25:45;;;;;;;3.65;2.30;;;;;;;12.52;21.99;99764.69;7684578;32;37849;-74
2022/04/18 10:30:02;;;;;;;4.72;2.45;;;;;;;12.36;22.69;99766.72;7684805;32;37405;-73
2022/04/18 10:34:26;;;;;;;7.32;4.07;;;;;;;12.83;25.97;99753.50;7684154;32;39321;-74
2022/04/18 10:38:44;;;;;;;2.70;2.08;;;;;;;13.24;24.27;99755.00;7682819;32;40179;-73
2022/04/18 10:43:00;;;;;;;3.72;2.00;;;;;;;14.02;25.13;99740.09;7683445;32;38651;-74
2022/04/18 10:47:16;;;;;;;3.37;2.20;;;;;;;14.71;25.15;99731.38;7684121;32;37007;-74
2022/04/18 10:51:40;;;;;;;2.65;2.03;;;;;;;14.72;23.93;99734.94;7684898;32;40190;-74
2022/04/18 10:55:56;;;;;;;2.53;1.70;;;;;;;15.25;23.62;99712.53;7684301;32;38862;-75
2022/04/18 11:00:12;;;;;;;2.92;1.80;;;;;;;15.11;22.50;99717.19;7684494;32;38595;-73
2022/04/18 11:04:53;;;;;;;3.78;2.25;;;;;;;15.33;21.38;99716.50;7672361;32;37003;-74
2022/04/18 11:09:14;;;;;;;4.25;2.10;;;;;;;15.55;21.68;99711.09;7684686;32;39120;-76
2022/04/18 11:13:32;;;;;;;3.58;2.08;;;;;;;14.94;21.93;99710.38;7683888;32;40763;-75
2022/04/18 11:17:48;;;;;;;6.60;2.00;;;;;;;13.33;23.26;99706.75;7681602;32;37921;-73
2022/04/18 11:22:10;;;;;;;3.15;1.90;;;;;;;13.06;23.28;99708.12;7683422;32;36746;-74
2022/04/18 11:26:27;;;;;;;4.78;2.00;;;;;;;12.93;23.07;99698.66;7657409;32;39341;-74
2022/04/18 11:30:44;;;;;;;4.00;2.20;;;;;;;12.88;22.11;99700.62;7657168;32;39905;-75
2022/04/18 11:35:01;;;;;;;4.22;2.25;;;;;;;12.85;22.73;99701.22;7665398;32;37850;-74
2022/04/18 11:39:17;;;;;;;3.50;2.10;;;;;;;12.87;22.61;99707.22;7683288;32;37140;-75
2022/04/18 11:43:34;;;;;;;3.47;1.98;;;;;;;12.59;23.33;99709.69;7683469;32;39395;-75
2022/04/18 11:47:51;;;;;;;3.70;2.20;;;;;;;13.05;24.66;99716.63;7683431;32;40105;-75
2022/04/18 11:52:21;;;;;;;3.08;1.90;;;;;;;13.50;26.51;99707.09;7684442;32;38416;-75
2022/04/18 11:56:37;;;;;;;2.92;1.90;;;;;;;14.26;24.31;99695.31;7684575;32;36922;-75
2022/04/18 12:10:25;;;;;;;3.37;1.90;;;;;;;14.79;22.06;99686.75;7684446;32;37959;-78
2022/04/18 12:14:46;;;;;;;3.55;1.90;;;;;;;15.82;21.35;99670.97;7684135;32;37907;-75
2022/04/18 12:19:02;;;;;;;4.40;2.05;;;;;;;15.38;23.34;99664.22;7684209;32;40222;-75
2022/04/18 12:23:26;;;;;;;3.15;1.70;;;;;;;15.96;20.76;99652.50;7684291;32;40864;-75
2022/04/18 12:27:42;;;;;;;3.92;2.28;;;;;;;15.54;21.47;99653.72;7683840;32;37979;-75
2022/04/18 12:31:59;;;;;;;4.93;1.80;;;;;;;15.93;21.60;99635.81;7682569;32;37158;-76
2022/04/18 12:36:30;;;;;;;2.65;1.80;;;;;;;15.09;21.46;99640.66;7683366;32;39545;-75
2022/04/18 12:40:54;;;;;;;2.75;1.90;;;;;;;14.39;21.41;99636.16;7683654;32;39978;-75
2022/04/18 12:45:10;;;;;;;3.00;2.22;;;;;;;14.69;21.90;99625.78;7683544;32;38013;-75
2022/04/18 12:49:26;;;;;;;2.72;2.17;;;;;;;14.64;21.69;99627.50;7683369;32;37111;-75
2022/04/18 12:53:53;;;;;;;4.93;2.37;;;;;;;14.27;21.89;99617.44;7683304;32;39448;-76
2022/04/18 12:58:18;;;;;;;5.60;2.10;;;;;;;14.21;22.08;99611.25;7683675;32;42337;-75
2022/04/18 13:02:34;;;;;;;3.53;1.98;;;;;;;15.01;22.15;99602.94;7683226;32;36906;-75
2022/04/18 13:07:02;;;;;;;7.47;3.20;;;;;;;15.33;21.07;99596.47;7682604;32;37128;-75
2022/04/18 13:11:19;;;;;;;4.00;1.80;;;;;;;15.59;19.83;99582.16;7683072;32;38969;-75
2022/04/18 13:15:35;;;;;;;3.72;1.95;;;;;;;16.42;19.02;99586.47;7682851;32;39585;-75
2022/04/18 13:19:51;;;;;;;3.42;1.70;;;;;;;16.13;18.84;99596.81;7682567;32;38061;-75
2022/04/18 13:24:09;;;;;;;2.83;1.87;;;;;;;15.52;22.38;99595.50;7682709;32;37785;-75
2022/04/18 13:28:25;;;;;;;2.05;1.67;;;;;;;15.87;22.92;99596.66;7682636;32;39008;-75
2022/04/18 13:32:41;;;;;;;2.72;1.77;;;;;;;15.86;23.48;99602.47;7682470;32;40595;-75
2022/04/18 13:36:57;;;;;;;4.03;2.25;;;;;;;14.90;24.70;99616.06;7682200;32;37996;-75
2022/04/18 13:41:14;;;;;;;3.05;1.98;;;;;;;14.48;25.79;99606.91;7682278;32;37054;-75
2022/04/18 13:45:30;;;;;;;1.85;1.58;;;;;;;14.93;25.47;99598.94;7683097;32;39319;-75
2022/04/18 13:49:46;;;;;;;2.15;1.87;;;;;;;15.74;24.45;99581.78;7684707;32;40722;-75
2022/04/18 13:54:02;;;;;;;2.35;1.85;;;;;;;16.88;23.53;99564.03;7685718;32;37907;-75
2022/04/18 13:58:19;;;;;;;4.37;1.85;;;;;;;16.94;21.02;99555.62;7685977;32;36770;-75
2022/04/18 14:02:35;;;;;;;3.30;1.75;;;;;;;16.43;20.96;99566.91;7685770;32;39021;-75
2022/04/18 14:06:51;;;;;;;6.65;2.40;;;;;;;16.28;22.18;99564.53;7685503;32;40001;-74
2022/04/18 14:11:09;;;;;;;2.97;1.90;;;;;;;15.72;21.62;99564.81;7685581;32;38598;-74
2022/04/18 14:24:34;;;;;;;14.43;2.60;;;;;;;15.81;22.62;99558.59;7685423;32;40737;-74
2022/04/18 14:28:51;;;;;;;2.37;1.80;;;;;;;15.91;23.54;99558.34;7684695;32;37865;-75
2022/04/18 14:33:08;;;;;;;7.80;3.72;;;;;;;15.94;22.82;99547.53;7684572;32;36993;-74
2022/04/18 14:37:24;;;;;;;7.65;3.42;;;;;;;15.39;22.86;99534.81;7685385;32;39609;-74
2022/04/18 14:41:40;;;;;;;9.70;5.70;;;;;;;15.11;22.70;99534.06;7684016;32;41227;-74
2022/04/18 14:45:58;;;;;;;3.67;2.37;;;;;;;14.22;23.33;99536.09;7685156;32;38681;-74
2022/04/18 14:50:14;;;;;;;2.78;2.10;;;;;;;14.11;24.63;99531.09;7685111;32;38111;-74
2022/04/18 14:54:30;;;;;;;3.37;2.00;;;;;;;14.78;23.84;99530.66;7685192;32;40121;-75
2022/04/18 14:58:46;;;;;;;3.90;1.85;;;;;;;14.95;22.96;99525.38;7684021;32;40835;-75
2022/04/18 15:03:02;;;;;;;4.30;2.20;;;;;;;14.69;23.06;99518.78;7675196;32;38002;-73
2022/04/18 15:07:20;;;;;;;2.05;1.60;;;;;;;14.97;22.72;99517.62;7683472;32;36598;-74
2022/04/18 15:11:36;;;;;;;2.42;1.92;;;;;;;13.77;24.13;99519.34;7684790;32;39403;-74
2022/04/18 15:15:52;;;;;;;4.75;2.60;;;;;;;13.49;25.40;99512.94;7684613;32;39965;-74
2022/04/18 15:20:08;;;;;;;3.50;2.17;;;;;;;13.06;26.46;99516.56;7684531;32;38728;-73
2022/04/18 15:24:24;;;;;;;3.58;2.10;;;;;;;13.37;25.35;99518.88;7684789;32;37189;-73
2022/04/18 15:28:40;;;;;;;8.43;2.80;;;;;;;12.84;25.22;99519.03;7684412;32;39392;-73
2022/04/18 15:32:56;;;;;;;2.90;2.10;;;;;;;13.19;25.81;99523.19;7683066;32;39958;-75
2022/04/18 15:37:13;;;;;;;3.40;2.08;;;;;;;13.18;25.95;99520.75;7683938;32;38154;-74
2022/04/18 15:41:29;;;;;;;8.35;2.60;;;;;;;13.48;25.30;99519.53;7684350;32;37593;-74
2022/04/18 15:45:45;;;;;;;3.55;2.33;;;;;;;13.31;25.67;99522.75;7684517;32;39459;-75
2022/04/18 15:50:01;;;;;;;5.68;2.35;;;;;;;13.15;25.04;99509.28;7684200;32;40110;-74
2022/04/18 15:54:18;;;;;;;5.62;3.47;;;;;;;13.08;25.53;99514.31;7684287;32;37934;-75
2022/04/18 15:58:35;;;;;;;2.85;2.20;;;;;;;12.88;27.10;99517.34;7684140;32;37776;-75
2022/04/18 16:02:51;;;;;;;9.23;4.68;;;;;;;12.75;26.86;99516.94;7683895;32;39083;-74
2022/04/18 16:07:09;;;;;;;6.25;2.05;;;;;;;13.49;25.09;99508.28;7683733;32;40536;-75
2022/04/18 16:11:26;;;;;;;6.95;4.20;;;;;;;13.33;25.26;99515.09;7683077;32;37978;-74
2022/04/18 16:15:42;;;;;;;8.30;3.00;;;;;;;13.65;23.90;99503.38;7682606;32;36917;-74
2022/04/18 16:19:58;;;;;;;2.90;2.10;;;;;;;13.73;23.92;99512.84;7683480;32;40008;-73
2022/04/18 16:24:16;;;;;;;2.72;1.98;;;;;;;13.33;24.16;99501.41;7683674;32;38152;-72
2022/04/18 16:28:33;;;;;;;3.45;2.37;;;;;;;13.98;23.91;99499.81;7674484;32;39412;-72
2022/04/18 16:32:48;;;;;;;2.55;2.08;;;;;;;13.75;23.64;99510.59;7669610;32;36740;-72
2022/04/18 16:37:07;;;;;;;2.20;1.95;;;;;;;13.36;25.14;99509.03;7668966;32;40137;-73
2022/04/18 16:45:59;;;;;;;3.35;2.20;;;;;;;13.51;25.09;99506.06;7670457;32;37871;-73
2022/04/18 16:50:17;;;;;;;3.70;2.30;;;;;;;13.75;26.26;99512.53;7669675;32;37174;-73
2022/04/18 16:54:33;;;;;;;3.50;2.10;;;;;;;13.66;27.30;99512.38;7668590;32;39074;-72
2022/04/18 16:58:49;;;;;;;3.90;2.40;;;;;;;14.01;25.69;99512.91;7668190;32;39638;-73
2022/04/18 17:03:05;;;;;;;9.90;2.60;;;;;;;13.76;26.56;99509.47;7669263;32;37571;-73
2022/04/18 17:07:21;;;;;;;5.97;2.50;;;;;;;13.11;27.70;99518.41;7669453;32;36827;-74
2022/04/18 17:11:37;;;;;;;5.28;2.50;;;;;;;13.57;27.03;99514.19;7669447;32;40041;-74
2022/04/18 17:15:53;;;;;;;4.75;2.78;;;;;;;13.28;27.91;99513.22;7668169;32;40587;-73
2022/04/18 17:20:11;;;;;;;4.35;2.25;;;;;;;13.20;28.57;99507.63;7668906;32;37955;-73
2022/04/18 17:24:29;;;;;;;3.15;2.33;;;;;;;13.21;28.42;99504.59;7668223;32;37814;-72
2022/04/18 17:28:47;;;;;;;5.40;2.58;;;;;;;13.05;28.83;99506.69;7672435;32;39482;-72
2022/04/18 17:33:03;;;;;;;4.78;2.40;;;;;;;12.67;29.61;99514.84;7686094;32;39590;-72
2022/04/18 17:37:19;;;;;;;4.93;3.05;;;;;;;12.47;30.02;99517.84;7685536;32;37941;-72
2022/04/18 17:41:35;;;;;;;4.32;2.90;;;;;;;12.46;29.60;99521.69;7685979;32;38321;-72
2022/04/18 17:45:51;;;;;;;3.75;2.92;;;;;;;12.44;29.29;99513.78;7686070;32;39373;-72
2022/04/18 17:50:07;;;;;;;4.00;2.50;;;;;;;12.29;29.20;99519.41;7685846;32;40014;-71
2022/04/18 17:59:02;;;;;;;4.87;2.65;;;;;;;11.74;31.68;99531.34;7673161;32;37153;-73
2022/04/18 18:03:20;;;;;;;5.15;2.78;;;;;;;11.89;31.72;99533.16;7670975;32;39379;-72
2022/04/18 18:07:37;;;;;;;3.92;2.62;;;;;;;11.88;32.34;99531.50;7669745;32;40806;-73
2022/04/18 18:11:53;;;;;;;4.50;2.67;;;;;;;12.08;32.07;99536.00;7685215;32;38724;-73
2022/04/18 18:16:09;;;;;;;4.10;2.95;;;;;;;12.13;32.36;99535.16;7673651;32;37714;-73
2022/04/18 18:20:25;;;;;;;6.22;2.50;;;;;;;11.84;33.12;99535.91;7685367;32;40148;-73
2022/04/18 18:24:41;;;;;;;3.30;2.53;;;;;;;11.59;34.26;99535.03;7674972;32;39896;-72
2022/04/18 18:28:57;;;;;;;7.25;2.97;;;;;;;11.49;34.09;99535.13;7669592;32;36516;-72
2022/04/18 18:33:14;;;;;;;5.70;2.72;;;;;;;11.07;34.60;99540.00;7669419;32;36627;-72
2022/04/18 18:37:30;;;;;;;4.43;2.75;;;;;;;11.01;34.83;99535.66;7672150;32;39398;-72
2022/04/18 18:41:46;;;;;;;3.75;2.60;;;;;;;11.11;34.12;99543.00;7669045;32;40852;-72
2022/04/18 18:46:03;;;;;;;3.30;2.50;;;;;;;10.93;34.20;99540.91;7669045;32;38656;-73
2022/04/18 18:54:54;;;;;;;4.65;2.80;;;;;;;10.57;35.01;99541.03;7671141;32;40162;-73
2022/04/18 18:59:13;;;;;;;68.55;24.15;;;;;;;10.48;35.42;99538.88;7668870;32;40818;-72
2022/04/18 19:03:29;;;;;;;118.72;36.67;;;;;;;10.40;35.59;99541.34;7671416;32;38755;-73
2022/04/18 19:07:46;;;;;;;32.70;13.82;;;;;;;10.65;35.22;99554.09;7669809;32;37435;-73
2022/04/18 19:12:05;;;;;;;20.10;9.55;;;;;;;10.38;35.76;99552.53;7668741;32;39383;-71
2022/04/18 19:16:21;;;;;;;12.50;4.53;;;;;;;10.20;35.90;99550.38;7670355;32;40004;-71
2022/04/18 19:29:46;;;;;;;4.20;2.47;;;;;;;9.90;36.58;99552.03;7670460;32;39267;-73
2022/04/18 19:34:02;;;;;;;7.00;3.53;;;;;;;10.18;35.06;99544.41;7667697;32;40325;-73
2022/04/18 19:38:22;;;;;;;5.25;3.22;;;;;;;9.92;35.26;99547.12;7671560;32;38594;-73
2022/04/18 19:42:38;;;;;;;4.93;3.33;;;;;;;9.87;35.77;99549.88;7668491;32;37055;-73
2022/04/18 19:46:54;;;;;;;4.75;3.08;;;;;;;9.52;37.12;99546.84;7669688;32;40045;-73
2022/04/18 19:51:11;;;;;;;4.55;2.87;;;;;;;9.63;36.63;99550.41;7668286;32;39936;-72
2022/04/18 19:55:26;;;;;;;7.12;3.12;;;;;;;9.65;35.94;99553.66;7669941;32;37506;-73
2022/04/18 19:59:43;;;;;;;4.85;2.70;;;;;;;9.57;36.18;99548.75;7669721;32;37232;-72
2022/04/18 20:03:59;;;;;;;6.78;3.00;;;;;;;9.42;36.57;99554.16;7666791;32;38989;-73
2022/04/18 20:08:16;;;;;;;5.30;2.90;;;;;;;9.50;37.07;99559.09;7669166;32;39573;-72
2022/04/18 20:12:33;;;;;;;7.53;3.33;;;;;;;9.72;36.21;99556.91;7667509;32;37743;-72
2022/04/18 20:16:50;;;;;;;8.13;3.17;;;;;;;9.45;37.17;99562.62;7667557;32;35699;-72
2022/04/18 20:21:06;;;;;;;6.25;3.30;;;;;;;9.59;36.80;99560.19;7669160;32;39322;-73
2022/04/18 20:25:24;;;;;;;6.20;3.15;;;;;;;9.14;37.85;99561.72;7668305;32;40121;-73
2022/04/18 20:29:41;;;;;;;7.70;3.58;;;;;;;9.59;37.77;99561.00;7667546;32;38304;-73
2022/04/18 20:33:57;;;;;;;7.78;3.85;;;;;;;9.35;38.71;99571.59;7670116;32;35881;-73
2022/04/18 20:38:13;;;;;;;7.47;3.75;;;;;;;9.30;39.50;99578.94;7670085;32;39402;-73
2022/04/18 20:42:35;;;;;;;6.25;3.50;;;;;;;8.80;41.47;99570.34;7667375;32;40824;-74
2022/04/18 20:46:52;;;;;;;5.05;3.60;;;;;;;8.72;41.08;99568.13;7668442;32;39081;-73
2022/04/18 20:51:08;;;;;;;9.50;4.50;;;;;;;8.45;40.59;99569.06;7667185;32;37767;-73
2022/04/18 20:59:59;;;;;;;6.82;3.95;;;;;;;8.35;40.59;99568.97;7678487;32;40531;-73
2022/04/18 21:04:15;;;;;;;5.50;3.97;;;;;;;8.33;40.54;99582.00;7685613;32;38341;-72
2022/04/18 21:08:31;;;;;;;6.72;4.10;;;;;;;8.06;41.76;99578.28;7686061;32;36764;-72
2022/04/18 21:12:47;;;;;;;6.90;4.03;;;;;;;8.03;41.50;99578.78;7686360;32;39348;-72
2022/04/18 21:17:04;;;;;;;7.93;4.25;;;;;;;8.02;42.19;99570.91;7683170;32;40781;-72